Terminal Aerodrome Forecast
Issued by NWS Jackson, KY

Home | Current Version | Previous Version | Text Only | Print | Product List | Glossary On
Versions: 1 2 3 4 5 6 7 8 9 10 11 12 13 14
000
FTUS43 KJKL 271100
TAFJKL
TAF
KJKL 271138Z 2712/2812 VRB05KT P6SM VCSH OVC020
      TEMPO 2712/2714 30007KT 4SM -SHSN OVC010
     FM271400 VRB05KT P6SM BKN025 BKN050
     FM271700 VRB05KT P6SM SCT025 BKN060
     FM280400 36005KT P6SM BKN010=

USA.gov is the U.S. government's official web portal to all federal, state and local government web resources and services.